Strona główna
METAR-TAF:

METAR-TAF

Lotnisko :

Port lotniczy Marka

Amman, Jordania

Szerokość geograficzna: 31-59N, Długość geograficzna: 035-59E, wysokość: 767 m

Aktualna obserwacja pogody

Raport powstał 47 minut temu, godzina 16:00 UTC
Cisza
Temperatura 8°C
Wilgotność 31%
Ciśnienie 1025 hPa
Widzialność 10 km lub więcej
Brak chmur poniżej 1500 m i brak chmur cumulonimbus

METAR: OJAM 221600Z 00000KT CAVOK 08/M08 Q1025 NOSIG

czas: 18:47 (16:47 UTC)

Prognoza

Raport powstał 6 godziny i 7 minut temu, godzina 10:40 UTC
Prognoza ważna od 22 godzina 12 UTC do 23 godzina 18 UTC
Wiatr 10 kt od wschodnio-południowy wschód
Widzialność: 6000 m
Przejściowo
od 22 godzina 12 UTC do 22 godzina 16 UTC
Wiatr 16 kt od wschodnio-południowy wschód
Widzialność: 4000 m
zawieja pyłowa
Prawdopodobieństwo 40%
od 23 godzina 02 UTC do 23 godzina 06 UTC
Wiatr 1 kt z kierunków zmiennych
Widzialność: 3000 m
zamglenie

TAF: OJAM 221040Z 2212/2318 11010KT 6000 NSC TEMPO 2212/2216 12016KT 4000 BLDU PROB40 2302/2306 VRB01KT 3000 BR

Obserwacja i prognoza pogody dla ponad 4000 lotnisk (raport METAR i TAF).

Dostępne stacje oznaczono żółtymi i czerwonymi punktami na mapie.

Najedź kursorem aby zobaczyć nazwę stacji.

Kliknij aby zobaczyć obserwacje i prognozy pogody.

Aby zmienić mapę: kliknij na zielony przycisk z czarnym krzyżykiem, aby powiększyć; na zielony przycisk z myślnikiem, aby pomniejszyć; na zielone strzałki, aby przejść do map sąsiednich.


METAR-TAF: